Latest Coastal Weather Observations for Kingscote

IDS60701

Issued at 2:21 pm CST Thursday 26 May 2016 (issued every 10 minutes, with the page automatically refreshed every 10 minutes)

About coastal observations | Map of coastal stations | Coastal observations for SA | Marine services | Other Formats
Station Details ID: 022841 Name: KINGSCOTE AERO Lat: -35.71 Lon: 137.52 Height: 6.23 m
Data from the previous 72 hours. | See also: Recent months at Kingscote
Date/Time
CST
Temp

°C
Wind Pressure Rain
since 9am
mm
Weather Cloud Vis
km
Sea
Height
m
Swell
Dir
 
Speed
knots
Gust
knots
hPa Trend Height
m
Period
s
Dir
26/02:00pm 17.1 WSW 8 13 1009.0 - 0.0 - Partly cloudy 10 - - - -
26/01:30pm 15.8 WSW 8 9 1009.2 - 0.0 - Partly cloudy 10 - - - -
26/01:00pm 14.4 SSW 9 11 1009.5 - 0.0 - Partly cloudy 10 - - - -
26/12:30pm 17.5 WSW 11 15 1009.4 - 0.0 - Partly cloudy 10 - - - -
26/12:00pm 17.2 SW 12 15 1009.6 - 0.0 - Mostly clear 10 - - - -
26/11:30am 16.0 SW 10 15 1009.7 - 0.0 - Partly cloudy 10 - - - -
26/11:00am 16.3 WSW 8 13 1009.9 - 0.0 - - 10 - - - -
26/10:30am 15.4 WSW 7 10 1009.9 - 0.0 - - 10 - - - -
26/10:00am 14.4 WSW 7 9 1009.9 - 0.0 - Partly cloudy 10 - - - -
26/09:30am 13.3 W 6 8 1009.9 - 0.0 - - 10 - - - -
26/09:00am 11.7 WSW 6 7 1009.7 - 3.0 - - 10 - - - -
26/08:30am 10.4 SW 3 3 1009.4 - 3.0 - - 10 - - - -
26/08:00am 9.5 W 2 4 1009.2 - 3.0 - Partly cloudy 10 - - - -
26/07:30am 8.9 W 5 6 1009.2 - 3.0 - Partly cloudy 10 - - - -
26/07:00am 8.7 WSW 5 6 1009.1 - 3.0 - Cloudy 10 - - - -
26/06:30am 8.4 W 5 5 1008.8 - 3.0 - Partly cloudy 10 - - - -
26/06:00am 8.4 WSW 8 9 1008.6 - 3.0 - - 10 - - - -
26/05:30am 8.3 WSW 7 8 1008.4 - 3.0 - - 10 - - - -
26/05:00am 9.0 WSW 7 8 1008.1 - 3.0 - - 10 - - - -
26/04:30am 10.8 SW 9 13 1007.9 - 3.0 - Partly cloudy 10 - - - -
26/04:00am 10.5 WSW 2 6 1007.8 - 3.0 - Partly cloudy 10 - - - -
26/03:48am 9.7 CALM 0 0 1007.8 - 2.8 - Cloudy 10 - - - -
26/03:30am 9.3 CALM 0 0 1007.7 - 2.8 - Partly cloudy 2 - - - -
26/03:24am 9.6 CALM 0 0 1007.7 - 2.8 - Partly cloudy 5 - - - -
26/03:00am 10.3 CALM 0 0 1007.7 - 2.8 - Mostly cloudy 10 - - - -
26/02:59am 10.2 CALM 0 0 1007.7 - 2.8 - Partly cloudy 10 - - - -
26/02:30am 10.1 CALM 0 0 1007.5 - 2.8 - Partly cloudy 2 - - - -
26/02:22am 9.8 CALM 0 0 1007.5 - 2.8 - Partly cloudy 5 - - - -
26/02:00am 10.2 CALM 0 0 1007.5 - 2.8 - Partly cloudy 10 - - - -
26/01:30am 10.4 CALM 0 0 1007.5 - 2.8 - Partly cloudy 10 - - - -
26/01:00am 10.7 CALM 0 0 1007.1 - 2.8 - Partly cloudy 10 - - - -
26/12:30am 11.0 CALM 0 0 1007.3 - 2.8 - Partly cloudy 10 - - - -
26/12:00am 10.8 CALM 0 0 1007.6 - 2.8 Recent precip. Cloudy 10 - - - -
 
Date/Time
CST
Temp

°C
Wind Pressure Rain
since 9am
mm
Weather Cloud Vis
km
Sea
Height
m
Swell
Dir
 
Speed
knots
Gust
knots
hPa Trend Height
m
Period
s
Dir
25/11:30pm 11.2 CALM 0 0 1007.8 - 2.6 - Partly cloudy 10 - - - -
25/11:00pm 11.0 CALM 0 0 1007.4 - 2.2 - Partly cloudy 10 - - - -
25/10:30pm 11.1 CALM 0 0 1007.6 - 2.2 - Cloudy 10 - - - -
25/10:05pm 10.8 CALM 0 0 1007.5 - 2.2 - Partly cloudy 10 - - - -
25/10:00pm 11.0 CALM 0 0 1007.4 - 2.2 - - 10 - - - -
25/09:30pm 10.3 CALM 0 0 1007.2 - 2.2 - - 0.7 - - - -
25/09:00pm 10.8 CALM 0 0 1006.8 - 2.2 - Cloudy 2 - - - -
25/08:51pm 11.1 CALM 0 0 1006.9 - 2.2 - Partly cloudy 5 - - - -
25/08:40pm 11.4 CALM 0 0 1007.2 - 2.2 - Partly cloudy 10 - - - -
25/08:30pm 11.4 CALM 0 0 1007.0 - 2.2 - Partly cloudy 5 - - - -
25/08:20pm 11.7 CALM 0 0 1007.2 - 2.2 - Partly cloudy 5 - - - -
25/08:00pm 11.8 CALM 0 0 1007.0 - 2.2 - Partly cloudy 10 - - - -
25/07:30pm 12.3 CALM 0 0 1006.8 - 2.2 - Partly cloudy 10 - - - -
25/07:00pm 12.8 S 3 4 1006.8 - 2.2 - - 10 - - - -
25/06:30pm 13.3 SSW 7 8 1006.5 - 2.2 - Partly cloudy 10 - - - -
25/06:08pm 13.5 SSW 6 8 1006.5 - 2.2 - Partly cloudy 10 - - - -
25/06:00pm 13.7 SW 7 9 1006.6 - 2.2 - Cloudy 10 - - - -
25/05:30pm 14.0 SW 6 8 1006.5 - 2.2 - Partly cloudy 10 - - - -
25/05:00pm 14.0 SSW 5 7 1006.0 - 2.2 - Partly cloudy 10 - - - -
25/04:54pm 14.1 SSW 5 7 1005.9 - 2.2 - Partly cloudy 10 - - - -
25/04:30pm 14.2 SW 7 9 1006.0 - 2.2 - Cloudy 10 - - - -
25/04:13pm 14.3 SW 7 11 1005.9 - 2.2 - Partly cloudy 10 - - - -
25/04:08pm 14.4 SW 8 11 1005.8 - 2.2 - Partly cloudy 10 - - - -
25/04:00pm 14.4 W 10 14 1005.9 - 2.2 - Partly cloudy 4 - - - -
25/03:58pm 14.8 W 11 14 1005.9 - 2.0 - Partly cloudy 4 - - - -
25/03:55pm 15.0 WNW 11 15 1005.7 - 1.8 - Partly cloudy 5 - - - -
25/03:41pm 15.0 NW 13 19 1005.4 - 1.8 - Partly cloudy 7 - - - -
25/03:33pm 15.0 NW 12 19 1005.5 - 1.8 - Partly cloudy 6 - - - -
25/03:30pm 15.1 NW 11 16 1005.5 - 1.8 - Partly cloudy 5 - - - -
25/03:05pm 15.1 NW 14 19 1005.5 - 1.6 - Partly cloudy 5 - - - -
25/03:04pm 15.1 NW 14 19 1005.5 - 1.6 - Partly cloudy 6 - - - -
25/03:00pm 15.2 NW 14 19 1005.4 - 0.8 Recent precip. Cloudy 8 - - - -
25/02:57pm 15.3 NW 15 21 1005.3 - 0.8 - Partly cloudy 10 - - - -
25/02:47pm 15.4 NW 13 21 1005.3 - 0.8 - Partly cloudy 10 - - - -
25/02:30pm 15.3 NNW 11 15 1005.4 - 0.8 - Partly cloudy 10 - - - -
25/02:05pm 15.2 NW 13 19 1005.6 - 0.6 - Partly cloudy 10 - - - -
25/02:00pm 15.3 NW 13 17 1005.6 - 0.6 - Partly cloudy 10 - - - -
25/01:30pm 15.1 NNW 12 16 1005.9 - 0.2 - Cloudy 7 - - - -
25/01:27pm 15.1 NNW 12 16 1005.9 - 0.2 - Cloudy 7 - - - -
25/01:17pm 15.2 NNW 11 16 1005.9 - 0.0 - Cloudy 5 - - - -
25/01:00pm 15.6 NNW 12 16 1006.2 - 0.0 - Cloudy 9 - - - -
25/12:30pm 15.8 NNW 14 20 1006.6 - 0.0 - Cloudy 10 - - - -
25/12:00pm 15.8 NNW 15 23 1007.2 - 0.0 - Mostly cloudy 10 - - - -
25/11:30am 15.8 NNW 13 25 1007.8 - 0.0 - Cloudy 10 - - - -
25/11:18am 15.7 NNW 15 25 1007.9 - 0.0 - Partly cloudy 10 - - - -
25/11:00am 15.5 NNW 14 21 1008.1 - 0.0 - Partly cloudy 10 - - - -
25/10:30am 15.0 NNW 16 24 1008.8 - 0.0 - Partly cloudy 10 - - - -
25/10:00am 15.1 NNW 14 21 1008.8 - 0.0 - Partly cloudy 10 - - - -
25/09:30am 15.0 NNW 15 26 1009.1 - 0.0 - Partly cloudy 10 - - - -
25/09:25am 15.0 NNW 16 26 1009.0 - 0.0 - Partly cloudy 10 - - - -
25/09:00am 15.0 NNW 15 23 1009.4 - 0.4 - Cloudy 10 - - - -
25/08:30am 14.8 N 11 16 1009.6 - 0.4 - Partly cloudy 10 - - - -
25/08:00am 14.6 N 11 19 1009.7 - 0.4 - Partly cloudy 10 - - - -
25/07:30am 14.0 N 11 16 1009.8 - 0.4 - Partly cloudy 10 - - - -
25/07:00am 14.9 NNW 15 21 1009.7 - 0.4 - Partly cloudy 10 - - - -
25/06:59am 14.9 NNW 15 21 1009.7 - 0.4 - Partly cloudy 10 - - - -
25/06:30am 14.8 N 7 11 1009.5 - 0.4 - Partly cloudy 10 - - - -
25/06:00am 14.3 NNW 9 13 1009.6 - 0.4 Rain Cloudy 10 - - - -
25/05:30am 15.1 NNW 9 13 1010.0 - 0.2 - Partly cloudy 10 - - - -
25/05:00am 15.2 NNW 13 21 1009.9 - 0.2 - Partly cloudy 10 - - - -
25/04:30am 15.3 N 10 17 1010.5 - 0.2 - Partly cloudy 10 - - - -
25/04:00am 15.3 NNW 10 16 1010.5 - 0.2 - Partly cloudy 10 - - - -
25/03:30am 15.1 N 10 13 1010.7 - 0.2 - Partly cloudy 10 - - - -
25/03:00am 14.5 NNW 9 14 1010.5 - 0.2 Recent precip. Cloudy 10 - - - -
25/02:30am 14.7 N 12 16 1010.5 - 0.2 - Partly cloudy 10 - - - -
25/02:00am 15.4 NNW 11 17 1012.0 - 0.0 - Partly cloudy 10 - - - -
25/01:30am 16.7 N 14 21 1011.5 - 0.0 - Partly cloudy 10 - - - -
25/01:00am 16.7 N 8 14 1011.3 - 0.0 - - 10 - - - -
25/12:30am 16.1 NNE 8 10 1012.0 - 0.0 - - 10 - - - -
25/12:00am 16.6 N 11 15 1012.2 - 0.0 - Cloudy 10 - - - -
 
Date/Time
CST
Temp

°C
Wind Pressure Rain
since 9am
mm
Weather Cloud Vis
km
Sea
Height
m
Swell
Dir
 
Speed
knots
Gust
knots
hPa Trend Height
m
Period
s
Dir
24/11:30pm 16.5 N 10 16 1012.2 - 0.0 - - 10 - - - -
24/11:00pm 15.5 N 9 12 1012.7 - 0.0 - - 10 - - - -
24/10:30pm 16.2 N 10 16 1013.2 - 0.0 - Partly cloudy 10 - - - -
24/10:00pm 16.5 N 12 17 1013.4 - 0.0 - - 10 - - - -
24/09:30pm 17.1 N 13 20 1013.5 - 0.0 - - 10 - - - -
24/09:00pm 16.5 NNE 8 12 1014.0 - 0.0 - Cloudy 10 - - - -
24/08:30pm 15.1 NNE 7 9 1014.2 - 0.0 - - 10 - - - -
24/08:00pm 14.8 NE 8 10 1014.5 - 0.0 - - 10 - - - -
24/07:30pm 14.7 NE 8 10 1014.7 - 0.0 - - 10 - - - -
24/07:00pm 14.7 NNE 7 9 1015.1 - 0.0 - - 10 - - - -
24/06:30pm 14.7 N 6 8 1015.3 - 0.0 - - 10 - - - -
24/06:00pm 14.7 NNE 6 8 1015.5 - 0.0 - - 10 - - - -
24/05:30pm 15.0 N 6 7 1015.7 - 0.0 - - 10 - - - -
24/05:00pm 15.6 NNE 7 9 1015.8 - 0.0 - - 10 - - - -
24/04:30pm 16.6 NNE 7 10 1016.1 - 0.0 - - 10 - - - -
24/04:00pm 17.4 NNE 10 13 1016.1 - 0.0 - - 10 - - - -
24/03:30pm 17.8 NNE 10 15 1016.5 - 0.0 - - 10 - - - -
24/03:00pm 17.9 N 11 15 1016.7 - 0.0 - - 10 - - - -
24/02:30pm 18.2 NNE 12 16 1017.1 - 0.0 - - 10 - - - -
24/02:00pm 18.4 N 12 18 1017.5 - 0.0 - - 10 - - - -
24/01:30pm 18.3 N 12 17 1017.8 - 0.0 - - 10 - - - -
24/01:00pm 18.3 N 12 21 1018.3 - 0.0 - - 10 - - - -
24/12:30pm 17.8 N 14 19 1019.0 - 0.0 - - 10 - - - -
24/12:00pm 17.7 N 12 19 1019.4 - 0.0 - - 10 - - - -
24/11:30am 17.5 N 12 18 1019.9 - 0.0 - - 10 - - - -
24/11:00am 17.6 NNW 11 17 1020.6 - 0.0 - Partly cloudy 10 - - - -
24/10:55am 17.3 NNW 12 17 1020.7 - 0.0 - Partly cloudy 10 - - - -
24/10:30am 17.2 NNW 12 16 1021.2 - 0.0 - Partly cloudy 10 - - - -
24/10:27am 17.5 N 11 17 1021.3 - 0.0 - Partly cloudy 10 - - - -
24/10:00am 16.4 N 9 14 1021.5 - 0.0 - - 10 - - - -
24/09:30am 14.8 CALM 0 0 1021.9 - 0.0 - Partly cloudy 10 - - - -
24/09:04am 12.1 CALM 0 0 1022.2 - 0.0 - Partly cloudy 10 - - - -
24/09:00am 11.6 CALM 0 0 1022.2 - 0.0 - Mostly clear 10 - - - -
24/08:30am 9.1 CALM 0 0 1022.3 - 0.0 - Partly cloudy 4 - - - -
24/08:24am 8.3 CALM 0 0 1022.3 - 0.0 - Partly cloudy 5 - - - -
24/08:00am 6.1 CALM 0 0 1022.2 - 0.0 - Partly cloudy 10 - - - -
24/07:30am 4.9 CALM 0 0 1022.2 - 0.0 - - 10 - - - -
24/07:00am 5.6 CALM 0 0 1021.8 - 0.0 - - 10 - - - -
24/06:30am 5.5 CALM 0 0 1021.8 - 0.0 - - 10 - - - -
24/06:00am 5.8 CALM 0 0 1021.7 - 0.0 - Mostly clear 10 - - - -
24/05:30am 6.0 CALM 0 0 1021.5 - 0.0 - - 10 - - - -
24/05:00am 6.4 CALM 0 0 1021.3 - 0.0 - - 10 - - - -
24/04:30am 6.5 CALM 0 0 1021.2 - 0.0 - - 10 - - - -
24/04:00am 6.5 CALM 0 0 1021.3 - 0.0 - - 10 - - - -
24/03:30am 6.6 CALM 0 0 1021.3 - 0.0 - Partly cloudy 10 - - - -
24/03:00am 6.5 CALM 0 0 1021.5 - 0.0 - Mostly clear 10 - - - -
24/02:30am 6.3 CALM 0 0 1021.4 - 0.0 - - 10 - - - -
24/02:00am 6.8 CALM 0 0 1021.3 - 0.0 - - 10 - - - -
24/01:30am 7.4 CALM 0 0 1021.5 - 0.0 - - 10 - - - -
24/01:00am 7.1 CALM 0 0 1022.0 - 0.0 - - 10 - - - -
24/12:48am 7.0 CALM 0 0 1022.1 - 0.0 - - 10 - - - -
24/12:32am 7.2 CALM 0 0 1022.4 - 0.0 - - 5 - - - -
24/12:30am 7.1 CALM 0 0 1022.5 - 0.0 - - 9 - - - -
24/12:00am 7.1 CALM 0 0 1022.8 - 0.0 - - 10 - - - -
 
Date/Time
CST
Temp

°C
Wind Pressure Rain
since 9am
mm
Weather Cloud Vis
km
Sea
Height
m
Swell
Dir
 
Speed
knots
Gust
knots
hPa Trend Height
m
Period
s
Dir
23/11:30pm 6.8 CALM 0 0 1022.9 - 0.0 - - 10 - - - -
23/11:00pm 7.6 CALM 0 0 1022.9 - 0.0 - - 10 - - - -
23/10:30pm 7.9 CALM 0 0 1023.1 - 0.0 - - 10 - - - -
23/10:00pm 8.2 SW 2 5 1023.2 - 0.0 - - 10 - - - -
23/09:30pm 9.1 CALM 0 0 1023.1 - 0.0 - - 10 - - - -
23/09:00pm 10.2 CALM 0 0 1023.3 - 0.0 - - 10 - - - -
23/08:30pm 10.8 WNW 3 4 1023.7 - 0.0 - - 10 - - - -
23/08:00pm 12.1 NW 4 4 1023.7 - 0.0 - Partly cloudy 10 - - - -
23/07:30pm 12.9 NW 4 5 1023.4 - 0.0 - Partly cloudy 10 - - - -
23/07:00pm 13.3 NW 5 6 1023.2 - 0.0 - Cloudy 10 - - - -
23/06:30pm 13.9 NW 4 5 1023.0 - 0.0 - Cloudy 10 - - - -
23/06:00pm 13.6 W 6 7 1022.6 - 0.0 - - 10 - - - -
23/05:30pm 14.8 WNW 7 9 1022.1 - 0.0 - - 10 - - - -
23/05:00pm 16.1 WNW 11 15 1021.9 - 0.0 - - 10 - - - -
23/04:30pm 17.0 WNW 11 14 1021.9 - 0.0 - - 10 - - - -
23/04:00pm 17.6 WNW 13 16 1021.6 - 0.0 - - 10 - - - -
23/03:30pm 18.0 WNW 14 19 1021.5 - 0.0 - Partly cloudy 10 - - - -
23/03:00pm 18.7 WNW 12 17 1021.1 - 0.0 - Partly cloudy 10 - - - -
23/02:30pm 18.8 WNW 12 17 1021.0 - 0.0 - - 10 - - - -

Other Formats:

Comma delimited format used in spreadsheet applications
http://www.bom.gov.au/fwo/IDS60701/IDS60701.95807.axf

JavaScript Object Notation format (JSON) in row-major order
http://www.bom.gov.au/fwo/IDS60701/IDS60701.95807.json